createdAt,value
2019-01-15T00:02:02.990Z,2.80
2019-01-15T00:04:28.862Z,3.13
2019-01-15T00:06:54.775Z,2.83
2019-01-15T00:09:20.648Z,3.77
2019-01-15T00:11:46.528Z,5.37
2019-01-15T00:14:12.391Z,3.27
2019-01-15T00:16:38.375Z,4.57
2019-01-15T00:19:04.222Z,3.53
2019-01-15T00:21:30.100Z,3.97
2019-01-15T00:23:55.989Z,3.70
2019-01-15T00:26:21.988Z,2.83
2019-01-15T00:28:47.833Z,4.00
2019-01-15T00:31:13.748Z,3.37
2019-01-15T00:33:39.612Z,3.50
2019-01-15T00:36:05.533Z,4.57
2019-01-15T00:38:31.498Z,3.27
2019-01-15T00:40:57.794Z,3.50
2019-01-15T00:43:23.682Z,2.63
2019-01-15T00:45:49.660Z,3.00
2019-01-15T00:48:15.509Z,3.87
2019-01-15T00:50:41.391Z,3.17
2019-01-15T00:53:07.287Z,2.17
2019-01-15T00:55:33.145Z,4.37
2019-01-15T00:57:59.016Z,3.00
2019-01-15T01:00:24.912Z,2.00
2019-01-15T01:02:50.800Z,5.67
2019-01-15T01:05:16.800Z,2.27
2019-01-15T01:07:42.675Z,2.03
2019-01-15T01:10:09.751Z,3.27
2019-01-15T01:12:35.647Z,3.60
2019-01-15T01:15:02.455Z,2.80
2019-01-15T01:17:28.324Z,2.43
2019-01-15T01:19:54.188Z,2.83
2019-01-15T01:22:20.073Z,3.83
2019-01-15T01:24:45.952Z,4.63
2019-01-15T01:27:11.941Z,3.93
2019-01-15T01:29:37.947Z,2.93
2019-01-15T01:32:03.770Z,2.13
2019-01-15T01:34:29.634Z,3.30
2019-01-15T01:36:55.537Z,3.37
2019-01-15T01:39:21.534Z,2.63
2019-01-15T01:41:47.769Z,2.03
2019-01-15T01:44:13.660Z,2.87
2019-01-15T01:46:39.687Z,4.57
2019-01-15T01:49:05.583Z,2.33
2019-01-15T01:51:31.431Z,2.70
2019-01-15T01:53:57.308Z,1.97
2019-01-15T01:56:23.247Z,1.60
2019-01-15T01:58:49.114Z,2.17
2019-01-15T02:01:14.972Z,1.77
2019-01-15T02:03:40.849Z,2.67
2019-01-15T02:06:06.712Z,1.90
2019-01-15T02:08:32.795Z,1.83
2019-01-15T02:10:58.697Z,2.83
2019-01-15T02:13:24.552Z,1.53
2019-01-15T02:15:50.433Z,2.03
2019-01-15T02:18:16.293Z,3.10
2019-01-15T02:20:42.182Z,2.73
2019-01-15T02:23:08.061Z,1.90
2019-01-15T02:25:34.327Z,2.40
2019-01-15T02:28:00.258Z,2.60
2019-01-15T02:30:26.214Z,3.23
2019-01-15T02:32:52.077Z,1.87
2019-01-15T02:35:17.917Z,2.10
2019-01-15T02:37:43.794Z,4.63
2019-01-15T02:40:12.114Z,4.27
2019-01-15T02:42:46.383Z,3.10
2019-01-15T02:45:09.350Z,2.37
2019-01-15T02:47:35.319Z,3.20
2019-01-15T02:50:01.224Z,3.33
2019-01-15T02:52:27.072Z,3.10
2019-01-15T02:54:52.950Z,3.67
2019-01-15T02:57:18.808Z,3.60
2019-01-15T02:59:44.779Z,3.80
2019-01-15T03:02:10.665Z,4.10
2019-01-15T03:04:36.629Z,3.80
2019-01-15T03:07:02.585Z,4.57
2019-01-15T03:09:28.465Z,3.10
2019-01-15T03:11:54.338Z,3.30
2019-01-15T03:14:20.202Z,4.07
2019-01-15T03:16:46.061Z,5.57
2019-01-15T03:19:11.952Z,4.73
2019-01-15T03:21:37.844Z,5.23
2019-01-15T03:24:03.745Z,4.90
2019-01-15T03:26:29.607Z,5.80
2019-01-15T03:28:55.468Z,5.07
2019-01-15T03:31:21.346Z,6.73
2019-01-15T03:33:47.212Z,3.87
2019-01-15T03:36:13.199Z,5.97
2019-01-15T03:38:39.058Z,5.33
2019-01-15T03:41:05.011Z,4.03
2019-01-15T03:43:31.523Z,2.60
2019-01-15T03:46:04.196Z,3.63
2019-01-15T03:48:25.223Z,6.83
2019-01-15T03:50:51.205Z,3.57
2019-01-15T03:53:17.053Z,3.20
2019-01-15T03:55:42.972Z,4.13
2019-01-15T03:58:08.840Z,3.50
2019-01-15T04:00:34.700Z,6.77
2019-01-15T04:03:00.849Z,2.63
2019-01-15T04:05:26.872Z,5.23
2019-01-15T04:07:54.644Z,3.90
2019-01-15T04:10:20.529Z,5.20
2019-01-15T04:12:46.443Z,6.20
2019-01-15T04:15:12.434Z,3.23
2019-01-15T04:17:38.344Z,3.30
2019-01-15T04:20:10.152Z,3.80
2019-01-15T04:22:36.019Z,4.43
2019-01-15T04:25:01.975Z,3.63
2019-01-15T04:27:27.850Z,5.20
2019-01-15T04:29:53.722Z,5.47
2019-01-15T04:32:19.579Z,4.03
2019-01-15T04:34:45.474Z,3.67
2019-01-15T04:37:11.359Z,4.50
2019-01-15T04:39:37.210Z,7.37
2019-01-15T04:42:03.225Z,3.37
2019-01-15T04:44:29.423Z,3.47
2019-01-15T04:46:55.320Z,4.10
2019-01-15T04:49:21.206Z,4.27
2019-01-15T04:51:47.086Z,4.73
2019-01-15T04:54:12.969Z,3.57
2019-01-15T04:56:39.271Z,4.63
2019-01-15T04:59:05.145Z,2.50
2019-01-15T05:01:30.998Z,3.67
2019-01-15T05:03:56.883Z,3.87
2019-01-15T05:06:22.765Z,3.37
2019-01-15T05:08:48.654Z,3.00
2019-01-15T05:11:14.624Z,5.33
2019-01-15T05:13:40.493Z,3.77
2019-01-15T05:16:06.353Z,4.77
2019-01-15T05:18:32.272Z,4.97
2019-01-15T05:20:58.256Z,3.17
2019-01-15T05:23:24.125Z,4.77
2019-01-15T05:25:50.011Z,6.50
2019-01-15T05:28:15.911Z,3.93
2019-01-15T05:30:41.763Z,6.63
2019-01-15T05:33:07.643Z,3.47
2019-01-15T05:35:33.517Z,6.37
2019-01-15T05:37:59.382Z,4.03
2019-01-15T05:40:25.254Z,5.30
2019-01-15T05:42:51.240Z,3.53
2019-01-15T05:45:22.560Z,8.10
2019-01-15T05:47:49.848Z,5.13
2019-01-15T05:50:17.642Z,5.63
2019-01-15T05:52:43.518Z,7.03
2019-01-15T05:55:09.407Z,6.20
2019-01-15T05:57:35.287Z,4.93
2019-01-15T06:00:02.022Z,3.83
2019-01-15T06:02:27.906Z,6.37
2019-01-15T06:04:53.783Z,7.30
2019-01-15T06:07:19.680Z,6.57
2019-01-15T06:09:45.569Z,6.90
2019-01-15T06:12:11.526Z,8.57
2019-01-15T06:14:37.390Z,7.03
2019-01-15T06:17:03.261Z,14.57
2019-01-15T06:19:29.165Z,10.93
2019-01-15T06:21:55.148Z,12.80
2019-01-15T06:24:21.020Z,9.77
2019-01-15T06:26:46.912Z,8.10
2019-01-15T06:29:13.102Z,8.00
2019-01-15T06:31:38.973Z,11.50
2019-01-15T06:34:04.834Z,10.17
2019-01-15T06:36:30.698Z,9.87
2019-01-15T06:38:56.552Z,10.17
2019-01-15T06:41:22.414Z,8.07
2019-01-15T06:43:50.128Z,9.77
2019-01-15T06:46:16.773Z,16.30
2019-01-15T06:48:42.647Z,9.97
2019-01-15T06:51:08.609Z,8.37
2019-01-15T06:53:34.516Z,9.57
2019-01-15T06:56:00.366Z,10.57
2019-01-15T06:58:26.311Z,12.70
2019-01-15T07:00:52.169Z,16.23
2019-01-15T07:03:18.037Z,17.73
2019-01-15T07:05:43.915Z,13.23
2019-01-15T07:08:09.822Z,12.33
2019-01-15T07:10:37.102Z,17.27
2019-01-15T07:13:03.142Z,15.00
2019-01-15T07:15:29.109Z,13.95
2019-01-15T07:17:55.006Z,13.07
2019-01-15T07:20:20.885Z,13.10
2019-01-15T07:22:46.755Z,15.67
2019-01-15T07:25:15.126Z,15.13
2019-01-15T07:27:41.133Z,16.17
2019-01-15T07:30:18.726Z,14.90
2019-01-15T07:32:44.580Z,15.27
2019-01-15T07:35:10.419Z,18.67
2019-01-15T07:37:36.325Z,18.47
2019-01-15T07:40:05.038Z,16.80
2019-01-15T07:42:30.894Z,19.00
2019-01-15T07:44:56.894Z,15.37
2019-01-15T07:47:23.498Z,17.13
2019-01-15T07:49:49.580Z,16.00
2019-01-15T07:52:15.451Z,16.20
2019-01-15T07:54:41.334Z,17.63
2019-01-15T07:57:07.229Z,15.97
2019-01-15T07:59:33.188Z,17.17
2019-01-15T08:01:59.180Z,17.17
2019-01-15T08:04:25.086Z,17.17
2019-01-15T08:06:51.069Z,17.87
2019-01-15T08:09:16.966Z,15.60
2019-01-15T08:11:42.843Z,19.70
2019-01-15T08:14:12.202Z,13.23
2019-01-15T08:16:36.638Z,14.27
2019-01-15T08:19:02.522Z,16.40
2019-01-15T08:21:28.440Z,19.67
2019-01-15T08:23:54.288Z,34.13
2019-01-15T08:26:20.167Z,23.07
2019-01-15T08:28:46.014Z,18.63
2019-01-15T08:31:11.880Z,16.53
2019-01-15T08:33:37.744Z,19.80
2019-01-15T08:36:03.595Z,21.43
2019-01-15T08:38:29.496Z,18.07
2019-01-15T08:40:55.511Z,19.20
2019-01-15T08:43:21.564Z,19.67
2019-01-15T08:45:47.579Z,16.80
2019-01-15T08:48:15.961Z,17.73
2019-01-15T08:50:41.935Z,21.77
2019-01-15T08:53:07.806Z,21.43
2019-01-15T08:55:33.678Z,21.83
2019-01-15T08:57:59.530Z,22.30
2019-01-15T09:00:25.446Z,21.97
2019-01-15T09:02:51.295Z,23.63
2019-01-15T09:05:17.189Z,15.53
2019-01-15T09:07:43.075Z,24.10
2019-01-15T09:10:16.259Z,19.97
2019-01-15T09:12:42.323Z,21.37
2019-01-15T09:15:11.227Z,20.53
2019-01-15T09:17:37.218Z,17.43
2019-01-15T09:20:09.869Z,28.30
2019-01-15T09:22:35.734Z,15.60
2019-01-15T09:25:01.786Z,13.80
2019-01-15T09:27:27.709Z,20.23
2019-01-15T09:29:53.577Z,20.30
2019-01-15T09:32:19.460Z,13.97
2019-01-15T09:34:45.348Z,13.63
2019-01-15T09:37:12.121Z,16.83
2019-01-15T09:39:38.020Z,18.40
2019-01-15T09:42:03.989Z,17.93
2019-01-15T09:44:34.058Z,15.67
2019-01-15T09:46:58.068Z,17.23
2019-01-15T09:49:24.617Z,17.97
2019-01-15T09:51:50.491Z,15.03
2019-01-15T09:54:16.381Z,16.57
2019-01-15T09:56:42.227Z,16.40
2019-01-15T09:59:08.088Z,21.73
2019-01-15T10:01:33.986Z,16.53
2019-01-15T10:03:59.860Z,18.33
2019-01-15T10:06:25.726Z,15.33
2019-01-15T10:08:51.631Z,19.00
2019-01-15T10:11:17.531Z,20.67
2019-01-15T10:13:43.401Z,19.17
2019-01-15T10:16:09.377Z,22.37
2019-01-15T10:18:35.275Z,19.97
2019-01-15T10:21:01.151Z,17.47
2019-01-15T10:23:27.018Z,15.90
2019-01-15T10:25:52.894Z,15.67
2019-01-15T10:28:18.752Z,16.23
2019-01-15T10:30:51.525Z,16.70
2019-01-15T10:33:26.875Z,13.80
2019-01-15T10:35:57.002Z,19.73
2019-01-15T10:38:27.157Z,14.30
2019-01-15T10:40:54.948Z,17.87
2019-01-15T10:43:20.796Z,14.87
2019-01-15T10:45:46.718Z,17.60
2019-01-15T10:48:13.359Z,16.63
2019-01-15T10:50:40.000Z,14.47
2019-01-15T10:53:06.778Z,13.70
2019-01-15T10:55:32.648Z,14.37
2019-01-15T10:57:58.581Z,16.80
2019-01-15T11:00:24.419Z,16.43
2019-01-15T11:02:50.385Z,16.77
2019-01-15T11:05:16.304Z,17.73
2019-01-15T11:07:42.174Z,19.97
2019-01-15T11:10:11.906Z,17.07
2019-01-15T11:12:37.795Z,17.03
2019-01-15T11:15:06.576Z,22.33
2019-01-15T11:17:32.445Z,17.17
2019-01-15T11:19:58.372Z,12.00
2019-01-15T11:22:24.264Z,14.50
2019-01-15T11:24:50.146Z,14.10
2019-01-15T11:27:16.030Z,14.43
2019-01-15T11:29:41.887Z,14.20
2019-01-15T11:32:07.754Z,19.13
2019-01-15T11:34:33.643Z,15.57
2019-01-15T11:36:59.625Z,10.03
2019-01-15T11:39:25.510Z,13.53
2019-01-15T11:41:51.386Z,10.80
2019-01-15T11:44:17.347Z,11.00
2019-01-15T11:46:43.261Z,11.87
2019-01-15T11:49:09.228Z,8.83
2019-01-15T11:51:35.318Z,11.93
2019-01-15T11:54:01.170Z,12.07
2019-01-15T11:56:27.032Z,9.37
2019-01-15T11:58:53.497Z,6.77
2019-01-15T12:01:21.298Z,13.63
2019-01-15T12:03:52.093Z,9.43
2019-01-15T12:06:34.815Z,6.93
2019-01-15T12:09:02.586Z,7.63
2019-01-15T12:11:36.636Z,15.67
2019-01-15T12:14:06.915Z,7.47
2019-01-15T12:16:51.292Z,6.50
2019-01-15T12:19:19.126Z,4.97
2019-01-15T12:22:03.698Z,5.83
2019-01-15T12:24:37.802Z,6.47
2019-01-15T12:27:08.348Z,8.87
2019-01-15T12:29:38.903Z,6.17
2019-01-15T12:32:06.690Z,6.00
2019-01-15T12:34:37.192Z,6.43
2019-01-15T12:37:10.744Z,8.37
2019-01-15T12:39:53.614Z,8.67
2019-01-15T12:42:21.381Z,7.23
2019-01-15T12:45:06.305Z,6.60
2019-01-15T12:47:49.359Z,5.03
2019-01-15T12:50:17.245Z,7.80
2019-01-15T12:52:48.280Z,4.70
2019-01-15T12:55:22.012Z,6.63
2019-01-15T12:57:52.672Z,4.53
2019-01-15T13:00:23.181Z,5.47
2019-01-15T13:02:59.807Z,10.70
2019-01-15T13:05:44.468Z,5.20
2019-01-15T13:08:24.192Z,6.50
2019-01-15T13:10:51.959Z,6.40
2019-01-15T13:13:22.455Z,13.73
2019-01-15T13:15:51.614Z,5.50
2019-01-15T13:18:34.543Z,7.17
2019-01-15T13:21:14.638Z,2.80
2019-01-15T13:23:51.474Z,2.13
2019-01-15T13:26:28.066Z,3.00
2019-01-15T13:28:58.353Z,2.80
2019-01-15T13:31:26.137Z,3.53
2019-01-15T13:34:10.700Z,4.60
2019-01-15T13:36:41.682Z,5.57
2019-01-15T13:39:21.448Z,5.67
2019-01-15T13:41:52.016Z,5.20
2019-01-15T13:44:28.590Z,6.40
2019-01-15T13:46:59.321Z,4.00
2019-01-15T13:49:27.091Z,5.77
2019-01-15T13:52:01.539Z,4.90
2019-01-15T13:54:35.757Z,5.87
2019-01-15T13:57:15.853Z,8.40
2019-01-15T13:59:49.442Z,5.73
2019-01-15T14:02:19.915Z,7.03
2019-01-15T14:04:59.668Z,6.07
2019-01-15T14:07:27.571Z,6.97
2019-01-15T14:09:58.358Z,9.53
2019-01-15T14:12:29.126Z,8.60
2019-01-15T14:14:59.832Z,9.60
2019-01-15T14:17:36.806Z,7.30
2019-01-15T14:20:20.168Z,7.50
2019-01-15T14:22:56.873Z,6.73
2019-01-15T14:25:30.436Z,8.27
2019-01-15T14:28:13.257Z,10.63
2019-01-15T14:30:53.139Z,8.30
2019-01-15T14:33:27.152Z,10.00
2019-01-15T14:36:13.046Z,8.23
2019-01-15T14:38:46.929Z,9.47
2019-01-15T14:41:14.699Z,8.90
2019-01-15T14:43:42.776Z,11.27
2019-01-15T14:46:27.220Z,15.70
2019-01-15T14:48:57.726Z,8.17
2019-01-15T14:51:28.600Z,7.73
2019-01-15T14:54:03.202Z,8.07
2019-01-15T14:56:48.417Z,12.13
2019-01-15T14:59:21.943Z,7.43
2019-01-15T15:01:52.603Z,9.13
2019-01-15T15:04:20.366Z,10.47
2019-01-15T15:06:48.246Z,8.70
2019-01-15T15:09:16.041Z,10.77
2019-01-15T15:11:49.957Z,10.00
2019-01-15T15:14:23.688Z,9.37
2019-01-15T15:17:00.473Z,8.63
2019-01-15T15:19:34.468Z,12.87
2019-01-15T15:22:02.297Z,12.20
2019-01-15T15:24:46.728Z,16.87
2019-01-15T15:27:20.321Z,13.07
2019-01-15T15:29:56.956Z,11.77
2019-01-15T15:32:24.752Z,11.00
2019-01-15T15:34:58.812Z,9.73
2019-01-15T15:37:29.373Z,8.40
2019-01-15T15:39:57.145Z,9.03
2019-01-15T15:42:41.895Z,11.60
2019-01-15T15:45:09.975Z,15.90
2019-01-15T15:47:40.924Z,11.30
2019-01-15T15:50:10.601Z,10.93
2019-01-15T15:52:53.776Z,15.77
2019-01-15T15:55:24.993Z,11.67
2019-01-15T15:57:59.376Z,9.87
2019-01-15T16:00:43.929Z,13.03
2019-01-15T16:03:11.708Z,9.80
2019-01-15T16:05:39.503Z,12.43
2019-01-15T16:08:23.792Z,10.97
2019-01-15T16:10:54.390Z,15.03
2019-01-15T16:13:28.389Z,15.57
2019-01-15T16:16:18.786Z,15.27
2019-01-15T16:18:45.381Z,11.90
2019-01-15T16:21:22.143Z,11.57
2019-01-15T16:24:02.272Z,13.00
2019-01-15T16:26:32.659Z,9.73
2019-01-15T16:29:00.380Z,15.73
2019-01-15T16:31:28.167Z,15.73
2019-01-15T16:34:00.373Z,15.43
2019-01-15T16:36:37.330Z,16.40
2019-01-15T16:39:20.351Z,14.90
2019-01-15T16:41:54.347Z,18.83
2019-01-15T16:44:24.846Z,16.03
2019-01-15T16:46:52.660Z,15.70
2019-01-15T16:49:26.433Z,19.17
2019-01-15T16:52:48.536Z,20.17
2019-01-15T16:55:16.280Z,20.70
2019-01-15T16:57:56.263Z,23.53
2019-01-15T17:00:42.007Z,20.47
2019-01-15T17:03:09.769Z,23.13
2019-01-15T17:05:49.517Z,22.03
2019-01-15T17:08:17.276Z,17.07
2019-01-15T17:10:47.920Z,18.17
2019-01-15T17:13:21.587Z,22.00
2019-01-15T17:16:05.999Z,14.10
2019-01-15T17:18:39.834Z,23.17
2019-01-15T17:21:13.622Z,19.70
2019-01-15T17:23:44.460Z,27.90
2019-01-15T17:26:12.249Z,13.40
2019-01-15T17:28:40.032Z,18.23
2019-01-15T17:31:16.816Z,22.83
2019-01-15T17:33:53.777Z,18.03
2019-01-15T17:36:39.545Z,19.73
2019-01-15T17:39:14.570Z,19.70
2019-01-15T17:41:54.205Z,15.03
2019-01-15T17:44:33.848Z,15.77
2019-01-15T17:47:04.604Z,42.63
2019-01-15T17:49:32.405Z,17.10
2019-01-15T17:52:01.581Z,19.90
2019-01-15T17:54:44.396Z,22.43
2019-01-15T17:57:27.137Z,16.43
2019-01-15T18:00:07.743Z,22.10
2019-01-15T18:02:45.495Z,15.33
2019-01-15T18:05:30.054Z,24.17
2019-01-15T18:08:09.838Z,28.37
2019-01-15T18:10:40.759Z,28.50
2019-01-15T18:13:08.558Z,32.13
2019-01-15T18:15:53.116Z,36.20
2019-01-15T18:18:37.690Z,38.87
2019-01-15T18:21:14.402Z,41.43
2019-01-15T18:23:42.168Z,44.03
2019-01-15T18:26:12.957Z,44.17
2019-01-15T18:28:40.757Z,37.63
2019-01-15T18:31:23.757Z,39.13
2019-01-15T18:33:51.560Z,37.40
2019-01-15T18:36:35.769Z,31.43
2019-01-15T18:39:03.716Z,31.37
2019-01-15T18:41:48.277Z,34.00
2019-01-15T18:44:31.145Z,29.33
2019-01-15T18:47:15.727Z,33.43
2019-01-15T18:49:43.513Z,31.17
2019-01-15T18:52:27.854Z,37.20
2019-01-15T18:55:01.431Z,33.93
2019-01-15T18:57:46.029Z,34.03
2019-01-15T19:00:31.073Z,32.83
2019-01-15T19:03:17.731Z,32.40
2019-01-15T19:05:45.536Z,32.17
2019-01-15T19:08:16.088Z,28.77
2019-01-15T19:10:49.962Z,28.80
2019-01-15T19:13:17.758Z,33.97
2019-01-15T19:15:57.627Z,33.07
2019-01-15T19:18:40.633Z,33.80
2019-01-15T19:21:11.318Z,33.23
2019-01-15T19:23:51.475Z,32.40
2019-01-15T19:26:34.669Z,38.90
2019-01-15T19:29:02.461Z,37.10
2019-01-15T19:31:33.254Z,32.00
2019-01-15T19:34:06.830Z,34.63
2019-01-15T19:36:51.424Z,30.43
2019-01-15T19:39:19.209Z,41.60
2019-01-15T19:41:52.568Z,34.77
2019-01-15T19:44:37.330Z,30.63
2019-01-15T19:47:17.236Z,33.63
2019-01-15T19:50:01.772Z,34.43
2019-01-15T19:52:38.565Z,34.93
2019-01-15T19:55:07.386Z,34.90
2019-01-15T19:57:38.274Z,32.73
2019-01-15T20:00:18.088Z,31.43
2019-01-15T20:02:49.443Z,31.57
2019-01-15T20:05:29.522Z,30.87
2019-01-15T20:07:57.387Z,32.83
2019-01-15T20:10:25.170Z,32.30
2019-01-15T20:13:01.918Z,32.70
2019-01-15T20:15:35.562Z,28.53
2019-01-15T20:18:18.408Z,32.53
2019-01-15T20:20:46.182Z,29.77
2019-01-15T20:23:23.001Z,30.00
2019-01-15T20:25:55.274Z,28.93
2019-01-15T20:28:26.093Z,32.30
2019-01-15T20:30:59.849Z,37.33
2019-01-15T20:33:27.628Z,34.97
2019-01-15T20:35:55.424Z,36.13
2019-01-15T20:38:38.346Z,32.23
2019-01-15T20:41:09.101Z,30.40
2019-01-15T20:43:42.652Z,34.17
2019-01-15T20:46:15.965Z,27.77
2019-01-15T20:48:58.787Z,29.87
2019-01-15T20:51:26.559Z,28.33
2019-01-15T20:54:00.470Z,25.83
2019-01-15T20:56:38.610Z,27.67
2019-01-15T20:59:06.405Z,33.80
2019-01-15T21:01:36.949Z,32.00
2019-01-15T21:04:07.599Z,33.27
2019-01-15T21:06:36.152Z,29.10
2019-01-15T21:09:11.751Z,29.73
2019-01-15T21:11:39.567Z,27.50
2019-01-15T21:14:23.994Z,26.80
2019-01-15T21:17:08.320Z,28.20
2019-01-15T21:19:48.489Z,26.93
2019-01-15T21:22:19.226Z,26.10
2019-01-15T21:24:59.125Z,30.57
2019-01-15T21:27:30.210Z,28.97
2019-01-15T21:30:00.708Z,22.73
2019-01-15T21:32:45.022Z,22.73
2019-01-15T21:35:29.314Z,24.93
2019-01-15T21:38:13.624Z,22.47
2019-01-15T21:40:59.706Z,21.47
2019-01-15T21:43:36.258Z,23.07
2019-01-15T21:46:20.858Z,21.30
2019-01-15T21:49:03.693Z,23.00
2019-01-15T21:51:37.290Z,22.43
2019-01-15T21:54:13.896Z,22.87
2019-01-15T21:56:41.800Z,27.00
2019-01-15T21:59:21.994Z,21.70
2019-01-15T22:02:05.158Z,26.10
2019-01-15T22:04:51.194Z,26.83
2019-01-15T22:07:36.662Z,24.63
2019-01-15T22:10:19.980Z,24.13
2019-01-15T22:12:47.812Z,22.53
2019-01-15T22:15:18.376Z,24.83
2019-01-15T22:17:54.939Z,26.50
2019-01-15T22:20:37.685Z,25.63
2019-01-15T22:23:22.062Z,26.60
2019-01-15T22:25:49.964Z,28.23
2019-01-15T22:28:17.783Z,27.13
2019-01-15T22:31:02.434Z,24.33
2019-01-15T22:33:30.217Z,23.00
2019-01-15T22:36:03.842Z,24.07
2019-01-15T22:38:50.113Z,24.07
2019-01-15T22:41:17.923Z,24.17
2019-01-15T22:44:04.001Z,24.13
2019-01-15T22:46:31.894Z,27.37
2019-01-15T22:49:05.537Z,24.50
2019-01-15T22:51:51.575Z,25.40
2019-01-15T22:54:22.067Z,26.77
2019-01-15T22:56:58.660Z,24.93
2019-01-15T22:59:38.266Z,31.73
2019-01-15T23:02:06.065Z,24.07
2019-01-15T23:04:50.799Z,28.10
2019-01-15T23:07:19.149Z,23.67
2019-01-15T23:09:50.627Z,23.33
2019-01-15T23:12:18.449Z,22.43
2019-01-15T23:14:49.035Z,27.50
2019-01-15T23:17:33.377Z,27.67
2019-01-15T23:20:09.996Z,24.70
2019-01-15T23:22:40.814Z,25.60
2019-01-15T23:25:26.961Z,22.67
2019-01-15T23:28:11.362Z,22.27
2019-01-15T23:30:39.190Z,25.70
2019-01-15T23:33:06.946Z,26.30
2019-01-15T23:35:40.715Z,21.43
2019-01-15T23:38:08.541Z,22.70
2019-01-15T23:40:52.946Z,21.93
2019-01-15T23:43:23.716Z,24.30
2019-01-15T23:46:08.311Z,20.73
2019-01-15T23:48:51.521Z,22.47
2019-01-15T23:51:35.919Z,23.13
2019-01-15T23:54:07.748Z,20.13
2019-01-15T23:56:44.505Z,20.63
2019-01-15T23:59:12.372Z,20.50
